Lokaal brand risico:
CBI


Regionaal brand risico: Meer informatie


Weerstation
Sluispark-LeuvenLeuven-Sluispark



Nabijgelegen vliegvelden - METAR rapporten

   
EBBR - Wilsele bij Leuven
Gewijzigd: 10-07-2020 20:50
Licht bewolkt    Wind: NW 14.8 km/h
Licht bewolkt
Wind: Wind: NW 14.8 km/h
Temperatuur: 16°C
Dauwpunt: 7°C
Vochtigheid: 55%
Barometer: 1019 hPa
Bewolking: Licht bewolkt
Zicht: meer dan 10 km
Bewolking: Licht bewolkt 1371.6 m
EBBR 101850Z 32008KT 290V350 9999 FEW045 16/07 Q1019 NOSIG
EBAW - Antwerp
Gewijzigd: 10-07-2020 20:50
Licht bewolkt    Wind: NW 16.7 km/h
Licht bewolkt
Wind: Wind: NW 16.7 km/h
Temperatuur: 16°C
Dauwpunt: 8°C
Vochtigheid: 59%
Barometer: 1019 hPa
Bewolking: Licht bewolkt
Zicht: meer dan 10 km
Bewolking: Licht bewolkt 1341.1 m
EBAW 101850Z 32009KT 9999 FEW044 16/08 Q1019 NOSIG
EBLG - Li├Ęge
Gewijzigd: 10-07-2020 20:50
Licht bewolkt    Wind: NNW 9.3 km/h
Licht bewolkt
Wind: Wind: NNW 9.3 km/h
Temperatuur: 17°C
Dauwpunt: 9°C
Vochtigheid: 59%
Barometer: 1019 hPa
Bewolking: Licht bewolkt
Zicht: meer dan 10 km
Bewolking: Licht bewolkt 853.4 m
EBLG 101850Z 33005KT 300V360 9999 FEW028 17/09 Q1019 NOSIG
EBCV - Mons/Bergen
Gewijzigd: 10-07-2020 20:55
Bewolking    Wind: Noorden 13 km/h
Bewolking
Wind: Wind: Noorden 13 km/h
Temperatuur: 17°C
Dauwpunt: 9°C
Vochtigheid: 59%
Barometer: 1019 hPa
Bewolking: Bewolking
Zicht: meer dan 10 km
Bewolking: Bewolking 2468.9 m
EBCV 101855Z AUTO 35007KT 9999 OVC081/// 17/09 Q1019 BLU
EHBK - Maastricht
Gewijzigd: 10-07-2020 20:55
Grotendeels bewolkt    Wind: Noorden 11.1 km/h
Grotendeels bewolkt
Wind: Wind: Noorden 11.1 km/h
Temperatuur: 16°C
Dauwpunt: 11°C
Vochtigheid: 72%
Barometer: 1018 hPa
Bewolking: Grotendeels bewolkt
Zicht: meer dan 10 km
Bewolking: Licht bewolkt 1097.3 m,
Gedeeltelijk bewolkt 1280.2 m,
Grotendeels bewolkt 1432.6 m
EHBK 101855Z AUTO 35006KT 310V030 9999 FEW036 SCT042 BKN047 16/11 Q1018 NOSIG
ELLX - Luxemburg
Gewijzigd: 10-07-2020 20:50
Helder    Wind: NNW 13 km/h
Helder
Wind: Wind: NNW 13 km/h
Temperatuur: 16°C
Dauwpunt: 12°C
Vochtigheid: 77%
Barometer: 1018 hPa
Zicht: meer dan 10 km
Bewolking: Helder
ELLX 101850Z 34007KT 320V020 CAVOK 16/12 Q1018 NOSIG
EBOS - Oostende
Gewijzigd: 10-07-2020 20:50
Licht bewolkt    Wind: WNW 7.4 km/h
Licht bewolkt
Wind: Wind: WNW 7.4 km/h
Temperatuur: 15°C
Dauwpunt: 10°C
Vochtigheid: 72%
Barometer: 1020 hPa
Bewolking: Licht bewolkt
Zicht: meer dan 10 km
Bewolking: Licht bewolkt 762 m
EBOS 101850Z 30004KT 260V320 9999 FEW025 15/10 Q1020 NOSIG
  

Script ontwikkeld door  Saratoga-weather.org Aangepast voor de template door  Weerstation Leuven

U vindt ons ook hier:

UK Metoffice

WeatherCloud

European Weather Network

Weather Underground

Benelux Weather Network

AWEKAS

WeatherlinkIP

HAMweather, WeatherForYou, PWS Weather

Het Weer Aktueel

Apparatuur in gebruik:

Weer-station
Davis VP2 weatherstation

Weer-programma
Meteobridge

Weer-computer
D-Link DIR-505

Webleverancier
Robohost

Davis VP2 weatherstation

Meteobridge

D-Link DIR-505

Robohost